createdAt,value
2022-12-13T00:02:06.459Z,26.77
2022-12-13T00:04:56.292Z,26.97
2022-12-13T00:07:44.779Z,27.97
2022-12-13T00:10:33.260Z,28.67
2022-12-13T00:13:21.731Z,28.03
2022-12-13T00:16:13.551Z,27.53
2022-12-13T00:19:02.286Z,26.27
2022-12-13T00:21:52.080Z,27.97
2022-12-13T00:24:45.905Z,25.30
2022-12-13T00:27:34.690Z,27.47
2022-12-13T00:30:23.212Z,27.30
2022-12-13T00:33:11.696Z,26.53
2022-12-13T00:36:00.369Z,29.30
2022-12-13T00:39:00.191Z,27.47
2022-12-13T00:41:48.814Z,24.60
2022-12-13T00:44:37.300Z,26.20
2022-12-13T00:47:25.784Z,27.67
2022-12-13T00:50:14.253Z,25.60
2022-12-13T00:53:04.058Z,25.73
2022-12-13T00:55:54.077Z,24.27
2022-12-13T00:58:46.065Z,27.10
2022-12-13T01:01:37.749Z,25.07
2022-12-13T01:04:26.267Z,25.87
2022-12-13T01:07:14.795Z,25.60
2022-12-13T01:10:03.539Z,26.87
2022-12-13T01:12:55.093Z,26.97
2022-12-13T01:15:43.673Z,25.10
2022-12-13T01:18:32.532Z,27.13
2022-12-13T01:21:22.111Z,26.00
2022-12-13T01:24:10.858Z,26.83
2022-12-13T01:26:59.780Z,25.23
2022-12-13T01:29:49.639Z,26.07
2022-12-13T01:32:38.396Z,27.23
2022-12-13T01:35:26.860Z,25.40
2022-12-13T01:38:16.187Z,25.23
2022-12-13T01:41:08.927Z,23.17
2022-12-13T01:44:07.163Z,25.03
2022-12-13T01:46:57.016Z,25.23
2022-12-13T01:49:45.577Z,25.93
2022-12-13T01:52:34.665Z,26.83
2022-12-13T01:55:23.880Z,26.07
2022-12-13T01:58:13.092Z,25.50
2022-12-13T02:01:02.264Z,25.37
2022-12-13T02:03:52.099Z,25.33
2022-12-13T02:06:43.483Z,25.67
2022-12-13T02:09:32.015Z,24.50
2022-12-13T02:12:20.419Z,25.73
2022-12-13T02:15:12.809Z,25.80
2022-12-13T02:18:14.294Z,24.50
2022-12-13T02:21:12.280Z,24.70
2022-12-13T02:24:28.366Z,26.40
2022-12-13T02:27:42.584Z,26.80
2022-12-13T02:30:35.897Z,26.33
2022-12-13T02:33:33.039Z,26.80
2022-12-13T02:36:26.914Z,25.17
2022-12-13T02:39:30.332Z,26.13
2022-12-13T02:42:24.011Z,26.43
2022-12-13T02:45:20.528Z,25.20
2022-12-13T02:48:12.093Z,25.10
2022-12-13T02:51:01.979Z,25.20
2022-12-13T02:53:50.553Z,25.33
2022-12-13T02:56:39.007Z,24.33
2022-12-13T02:59:31.841Z,27.77
2022-12-13T03:02:31.509Z,25.60
2022-12-13T03:05:46.771Z,24.97
2022-12-13T03:08:46.305Z,23.50
2022-12-13T03:12:00.821Z,29.03
2022-12-13T03:14:57.647Z,26.47
2022-12-13T03:17:50.457Z,26.00
2022-12-13T03:20:40.298Z,27.77
2022-12-13T03:23:29.239Z,27.90
2022-12-13T03:26:20.746Z,26.50
2022-12-13T03:29:09.212Z,26.43
2022-12-13T03:31:57.674Z,25.33
2022-12-13T03:34:49.640Z,27.20
2022-12-13T03:37:42.032Z,26.23
2022-12-13T03:40:30.913Z,26.53
2022-12-13T03:43:22.020Z,27.10
2022-12-13T03:46:11.502Z,26.27
2022-12-13T03:49:00.023Z,25.70
2022-12-13T03:51:48.436Z,28.10
2022-12-13T03:54:38.266Z,27.60
2022-12-13T03:57:26.734Z,25.30
2022-12-13T04:00:16.067Z,26.57
2022-12-13T04:03:04.819Z,25.53
2022-12-13T04:05:53.343Z,25.87
2022-12-13T04:11:46.414Z,27.37
2022-12-13T04:14:34.926Z,26.70
2022-12-13T04:17:23.377Z,26.10
2022-12-13T04:20:12.655Z,27.20
2022-12-13T04:23:01.216Z,26.33
2022-12-13T04:25:59.976Z,26.23
2022-12-13T04:28:54.485Z,25.97
2022-12-13T04:31:43.332Z,25.63
2022-12-13T04:34:36.771Z,24.50
2022-12-13T04:37:26.210Z,24.63
2022-12-13T04:40:14.698Z,25.43
2022-12-13T04:43:10.424Z,26.87
2022-12-13T04:46:00.260Z,24.30
2022-12-13T04:48:48.837Z,25.07
2022-12-13T04:51:37.301Z,25.60
2022-12-13T04:54:25.806Z,25.77
2022-12-13T04:57:14.243Z,25.30
2022-12-13T05:00:03.018Z,25.97
2022-12-13T05:02:52.891Z,24.70
2022-12-13T05:05:41.980Z,25.93
2022-12-13T05:08:30.551Z,27.60
2022-12-13T05:11:19.796Z,23.70
2022-12-13T05:14:11.557Z,25.17
2022-12-13T05:17:00.324Z,24.73
2022-12-13T05:19:50.263Z,26.00
2022-12-13T05:22:38.778Z,24.13
2022-12-13T05:25:27.293Z,26.50
2022-12-13T05:28:28.155Z,24.67
2022-12-13T05:31:22.465Z,23.43
2022-12-13T05:34:15.744Z,25.93
2022-12-13T05:37:05.670Z,27.10
2022-12-13T05:39:54.129Z,26.37
2022-12-13T05:42:42.582Z,25.67
2022-12-13T05:45:31.834Z,24.80
2022-12-13T05:48:24.360Z,23.43
2022-12-13T05:51:13.606Z,25.47
2022-12-13T05:54:03.985Z,24.97
2022-12-13T05:56:52.438Z,25.00
2022-12-13T05:59:41.022Z,25.07
2022-12-13T06:02:29.529Z,24.60
2022-12-13T06:05:18.172Z,24.93
2022-12-13T06:08:06.668Z,26.10
2022-12-13T06:11:31.412Z,26.80
2022-12-13T06:14:21.878Z,26.97
2022-12-13T06:17:11.390Z,25.27
2022-12-13T06:19:59.847Z,25.83
2022-12-13T06:22:48.312Z,25.50
2022-12-13T06:25:37.572Z,26.93
2022-12-13T06:28:27.398Z,28.53
2022-12-13T06:31:15.902Z,24.67
2022-12-13T06:34:14.673Z,26.27
2022-12-13T06:37:05.258Z,27.37
2022-12-13T06:39:53.715Z,25.87
2022-12-13T06:42:42.197Z,27.13
2022-12-13T06:45:32.053Z,26.67
2022-12-13T06:48:20.599Z,25.27
2022-12-13T06:51:10.385Z,26.00
2022-12-13T06:53:58.831Z,27.53
2022-12-13T06:56:49.498Z,29.30
2022-12-13T06:59:38.003Z,29.87
2022-12-13T07:02:27.943Z,27.90
2022-12-13T07:05:16.489Z,23.63
2022-12-13T07:08:05.466Z,25.97
2022-12-13T07:10:55.207Z,27.93
2022-12-13T07:13:43.825Z,25.60
2022-12-13T07:16:32.347Z,27.47
2022-12-13T07:19:23.446Z,26.97
2022-12-13T07:22:13.101Z,26.53
2022-12-13T07:25:01.626Z,25.63
2022-12-13T07:28:02.104Z,26.27
2022-12-13T07:30:51.341Z,24.93
2022-12-13T07:33:40.370Z,23.57
2022-12-13T07:36:30.244Z,24.30
2022-12-13T07:39:18.729Z,27.03
2022-12-13T07:42:07.360Z,24.73
2022-12-13T07:44:55.926Z,28.03
2022-12-13T07:47:44.750Z,26.60
2022-12-13T07:50:37.290Z,26.30
2022-12-13T07:53:27.699Z,27.13
2022-12-13T07:56:21.845Z,27.47
2022-12-13T07:59:11.159Z,29.07
2022-12-13T08:02:01.789Z,28.47
2022-12-13T08:04:54.443Z,28.60
2022-12-13T08:07:43.536Z,26.10
2022-12-13T08:10:33.854Z,26.30
2022-12-13T08:13:22.646Z,27.70
2022-12-13T08:16:26.083Z,26.87
2022-12-13T08:19:17.445Z,29.13
2022-12-13T08:22:06.619Z,28.67
2022-12-13T08:25:03.446Z,27.67
2022-12-13T08:27:53.483Z,26.37
2022-12-13T08:30:50.385Z,26.10
2022-12-13T08:33:40.292Z,26.30
2022-12-13T08:36:28.838Z,26.97
2022-12-13T08:39:17.351Z,26.90
2022-12-13T08:42:15.242Z,26.90
2022-12-13T08:45:09.686Z,24.77
2022-12-13T08:47:59.268Z,25.27
2022-12-13T08:50:47.783Z,28.20
2022-12-13T08:53:41.166Z,24.70
2022-12-13T08:56:30.078Z,26.57
2022-12-13T08:59:19.228Z,26.97
2022-12-13T09:02:11.192Z,26.03
2022-12-13T09:04:59.698Z,24.53
2022-12-13T09:07:48.265Z,24.40
2022-12-13T09:10:38.321Z,26.37
2022-12-13T09:13:31.560Z,26.40
2022-12-13T09:16:24.477Z,25.90
2022-12-13T09:19:26.147Z,25.70
2022-12-13T09:22:16.253Z,24.60
2022-12-13T09:25:24.230Z,25.10
2022-12-13T09:28:12.969Z,26.57
2022-12-13T09:31:02.255Z,26.80
2022-12-13T09:33:50.735Z,26.50
2022-12-13T09:36:40.882Z,26.87
2022-12-13T09:39:29.386Z,26.37
2022-12-13T09:42:20.897Z,26.97
2022-12-13T09:45:22.349Z,24.60
2022-12-13T09:48:13.562Z,24.70
2022-12-13T09:51:18.178Z,26.47
2022-12-13T09:54:20.737Z,37.80
2022-12-13T09:57:30.896Z,34.70
2022-12-13T10:00:24.046Z,26.43
2022-12-13T10:03:15.803Z,30.33
2022-12-13T10:06:15.015Z,26.00
2022-12-13T10:09:14.198Z,24.73
2022-12-13T10:12:04.567Z,22.43
2022-12-13T10:14:56.700Z,23.03
2022-12-13T10:17:51.563Z,23.90
2022-12-13T10:20:44.385Z,22.00
2022-12-13T10:23:47.029Z,24.67
2022-12-13T10:26:41.592Z,24.70
2022-12-13T10:29:31.551Z,23.13
2022-12-13T10:32:20.387Z,22.87
2022-12-13T10:35:23.400Z,21.90
2022-12-13T10:38:31.956Z,22.93
2022-12-13T10:41:30.046Z,22.60
2022-12-13T10:44:25.049Z,22.33
2022-12-13T10:47:19.833Z,25.63
2022-12-13T10:50:24.292Z,20.90
2022-12-13T10:53:19.634Z,19.97
2022-12-13T10:56:11.435Z,19.40
2022-12-13T10:59:17.045Z,20.43
2022-12-13T11:02:35.760Z,19.03
2022-12-13T11:05:26.755Z,17.57
2022-12-13T11:08:17.065Z,17.97
2022-12-13T11:11:07.636Z,18.87
2022-12-13T11:14:01.333Z,19.77
2022-12-13T11:16:51.880Z,18.10
2022-12-13T11:19:46.476Z,18.30
2022-12-13T11:22:37.452Z,17.83
2022-12-13T11:25:28.572Z,18.40
2022-12-13T11:28:28.582Z,18.63
2022-12-13T11:31:21.603Z,18.60
2022-12-13T11:34:16.741Z,16.93
2022-12-13T11:37:14.297Z,18.67
2022-12-13T11:40:06.602Z,18.37
2022-12-13T11:42:59.048Z,18.10
2022-12-13T11:45:52.534Z,20.87
2022-12-13T11:48:44.686Z,18.27
2022-12-13T11:51:40.749Z,18.00
2022-12-13T11:54:36.359Z,19.30
2022-12-13T11:57:33.350Z,19.53
2022-12-13T12:00:35.181Z,20.07
2022-12-13T12:03:37.734Z,16.00
2022-12-13T12:06:28.635Z,16.90
2022-12-13T12:09:19.673Z,16.40
2022-12-13T12:12:13.983Z,18.07
2022-12-13T12:15:16.212Z,17.37
2022-12-13T12:18:05.140Z,19.50
2022-12-13T12:21:15.254Z,17.53
2022-12-13T12:24:11.894Z,18.63
2022-12-13T12:27:11.891Z,16.83
2022-12-13T12:30:13.697Z,17.43
2022-12-13T12:33:19.990Z,17.33
2022-12-13T12:36:21.869Z,18.27
2022-12-13T12:39:41.192Z,15.93
2022-12-13T12:43:11.807Z,15.60
2022-12-13T12:46:00.400Z,15.70
2022-12-13T12:49:08.766Z,16.60
2022-12-13T12:52:03.509Z,15.50
2022-12-13T12:55:02.962Z,15.87
2022-12-13T12:58:01.894Z,15.10
2022-12-13T13:01:05.707Z,15.10
2022-12-13T13:04:01.804Z,15.13
2022-12-13T13:06:52.463Z,16.93
2022-12-13T13:09:41.509Z,16.93
2022-12-13T13:12:30.985Z,15.17
2022-12-13T13:15:51.783Z,15.47
2022-12-13T13:18:45.910Z,15.90
2022-12-13T13:21:39.408Z,16.37
2022-12-13T13:24:29.195Z,16.20
2022-12-13T13:27:28.818Z,15.80
2022-12-13T13:30:19.389Z,13.63
2022-12-13T13:33:54.029Z,14.17
2022-12-13T13:36:52.314Z,14.20
2022-12-13T13:40:01.489Z,14.00
2022-12-13T13:43:04.892Z,17.00
2022-12-13T13:45:57.367Z,14.90
2022-12-13T13:48:56.231Z,17.10
2022-12-13T13:52:24.865Z,19.53
2022-12-13T13:55:34.301Z,19.67
2022-12-13T13:58:55.895Z,19.80
2022-12-13T14:02:36.373Z,20.60
2022-12-13T14:06:03.712Z,21.27
2022-12-13T14:09:09.416Z,19.27
2022-12-13T14:12:35.327Z,20.30
2022-12-13T14:16:11.987Z,21.80
2022-12-13T14:19:29.976Z,22.50
2022-12-13T14:22:29.363Z,22.40
2022-12-13T14:25:47.825Z,20.57
2022-12-13T14:28:48.284Z,21.13
2022-12-13T14:31:40.737Z,21.40
2022-12-13T14:34:31.030Z,21.20
2022-12-13T14:37:28.306Z,19.83
2022-12-13T14:40:27.182Z,22.10
2022-12-13T14:43:24.686Z,21.80
2022-12-13T14:46:16.050Z,21.53
2022-12-13T14:49:07.734Z,22.40
2022-12-13T14:52:01.228Z,21.43
2022-12-13T14:54:57.878Z,24.93
2022-12-13T14:57:53.247Z,22.93
2022-12-13T15:00:42.724Z,21.00
2022-12-13T15:03:31.373Z,21.37
2022-12-13T15:06:20.558Z,21.77
2022-12-13T15:09:12.078Z,22.23
2022-12-13T15:12:24.891Z,22.07
2022-12-13T15:15:31.560Z,23.83
2022-12-13T15:18:21.707Z,23.33
2022-12-13T15:21:22.958Z,22.20
2022-12-13T15:24:13.475Z,23.27
2022-12-13T15:27:03.665Z,22.90
2022-12-13T15:29:54.245Z,24.03
2022-12-13T15:33:03.484Z,21.97
2022-12-13T15:36:05.963Z,24.10
2022-12-13T15:39:01.745Z,21.97
2022-12-13T15:41:50.791Z,23.63
2022-12-13T15:44:45.835Z,19.90
2022-12-13T15:47:36.630Z,21.27
2022-12-13T15:50:34.189Z,19.83
2022-12-13T15:53:27.380Z,21.13
2022-12-13T15:56:31.188Z,21.97
2022-12-13T15:59:26.816Z,20.43
2022-12-13T16:02:20.494Z,21.13
2022-12-13T16:05:10.964Z,20.87
2022-12-13T16:08:13.968Z,21.67
2022-12-13T16:11:03.276Z,19.63
2022-12-13T16:13:52.465Z,21.67
2022-12-13T16:16:47.304Z,20.40
2022-12-13T16:19:37.165Z,25.60
2022-12-13T16:22:25.783Z,22.30
2022-12-13T16:25:16.023Z,24.07
2022-12-13T16:28:04.703Z,25.47
2022-12-13T16:31:03.288Z,23.60
2022-12-13T16:33:52.509Z,20.33
2022-12-13T16:36:42.387Z,22.10
2022-12-13T16:39:30.916Z,21.27
2022-12-13T16:42:19.696Z,20.77
2022-12-13T16:45:42.920Z,23.70
2022-12-13T16:48:22.261Z,22.70
2022-12-13T16:51:10.973Z,20.53
2022-12-13T16:54:00.931Z,20.63
2022-12-13T16:56:50.705Z,19.00
2022-12-13T16:59:39.241Z,18.80
2022-12-13T17:02:27.777Z,18.90
2022-12-13T17:05:17.255Z,18.03
2022-12-13T17:08:05.941Z,17.90
2022-12-13T17:10:58.017Z,20.57
2022-12-13T17:13:48.110Z,17.93
2022-12-13T17:16:36.601Z,19.37
2022-12-13T17:19:25.125Z,19.80
2022-12-13T17:22:13.589Z,20.43
2022-12-13T17:25:02.144Z,17.50
2022-12-13T17:27:52.106Z,18.57
2022-12-13T17:30:41.158Z,18.77
2022-12-13T17:33:29.726Z,18.83
2022-12-13T17:36:18.586Z,19.37
2022-12-13T17:39:07.205Z,21.20
2022-12-13T17:41:55.960Z,21.20
2022-12-13T17:44:46.280Z,19.90
2022-12-13T17:47:34.848Z,22.60
2022-12-13T17:50:23.296Z,19.00
2022-12-13T17:53:11.923Z,18.53
2022-12-13T17:56:02.348Z,19.20
2022-12-13T17:58:50.862Z,19.50
2022-12-13T18:01:40.921Z,19.87
2022-12-13T18:04:29.480Z,17.93
2022-12-13T18:07:18.012Z,22.63
2022-12-13T18:10:07.639Z,20.50
2022-12-13T18:12:56.144Z,19.57
2022-12-13T18:15:44.688Z,19.87
2022-12-13T18:18:34.820Z,21.30
2022-12-13T18:21:23.917Z,20.90
2022-12-13T18:24:12.774Z,21.00
2022-12-13T18:27:01.300Z,19.37
2022-12-13T18:29:55.326Z,21.07
2022-12-13T18:32:44.194Z,20.73
2022-12-13T18:35:34.313Z,21.27
2022-12-13T18:38:24.199Z,22.13
2022-12-13T18:41:14.951Z,20.07
2022-12-13T18:44:05.451Z,19.50
2022-12-13T18:46:54.113Z,19.40
2022-12-13T18:49:43.087Z,20.00
2022-12-13T18:52:44.824Z,19.10
2022-12-13T18:55:33.348Z,18.20
2022-12-13T18:58:21.882Z,17.97
2022-12-13T19:01:12.332Z,18.33
2022-12-13T19:04:00.825Z,18.30
2022-12-13T19:06:49.301Z,16.83
2022-12-13T19:09:39.123Z,18.90
2022-12-13T19:12:27.647Z,18.73
2022-12-13T19:15:17.082Z,17.17
2022-12-13T19:18:06.827Z,18.07
2022-12-13T19:20:56.008Z,15.97
2022-12-13T19:23:49.495Z,17.20
2022-12-13T19:26:43.295Z,17.60
2022-12-13T19:29:31.838Z,16.10
2022-12-13T19:32:20.661Z,20.03
2022-12-13T19:35:10.141Z,32.97
2022-12-13T19:37:58.844Z,21.27
2022-12-13T19:40:47.404Z,21.63
2022-12-13T19:43:37.505Z,16.10
2022-12-13T19:46:27.183Z,17.57
2022-12-13T19:49:15.969Z,16.50
2022-12-13T19:52:04.810Z,15.80
2022-12-13T19:54:53.637Z,18.47
2022-12-13T19:57:42.110Z,17.23
2022-12-13T20:00:31.952Z,16.00
2022-12-13T20:03:20.660Z,16.13
2022-12-13T20:06:13.283Z,19.70
2022-12-13T20:09:01.803Z,19.77
2022-12-13T20:11:50.470Z,24.00
2022-12-13T20:14:38.985Z,26.00
2022-12-13T20:17:29.147Z,22.17
2022-12-13T20:20:17.877Z,25.27
2022-12-13T20:23:06.905Z,22.27
2022-12-13T20:26:00.807Z,18.30
2022-12-13T20:28:49.975Z,17.50
2022-12-13T20:31:40.011Z,15.90
2022-12-13T20:34:29.955Z,15.33
2022-12-13T20:37:18.492Z,16.03
2022-12-13T20:40:08.320Z,16.70
2022-12-13T20:42:57.080Z,16.03
2022-12-13T20:45:46.649Z,15.87
2022-12-13T20:48:36.820Z,14.30
2022-12-13T20:51:28.269Z,16.50
2022-12-13T20:54:16.784Z,16.73
2022-12-13T20:57:06.049Z,15.53
2022-12-13T20:59:54.549Z,14.80
2022-12-13T21:02:44.500Z,16.37
2022-12-13T21:05:33.008Z,15.70
2022-12-13T21:08:40.626Z,16.90
2022-12-13T21:11:31.192Z,17.30
2022-12-13T21:14:23.172Z,16.70
2022-12-13T21:17:12.074Z,14.60
2022-12-13T21:20:00.628Z,17.70
2022-12-13T21:22:49.196Z,15.20
2022-12-13T21:25:39.167Z,16.47
2022-12-13T21:28:27.605Z,15.60
2022-12-13T21:31:16.123Z,15.93
2022-12-13T21:34:06.367Z,17.50
2022-12-13T21:36:54.876Z,17.33
2022-12-13T21:39:43.349Z,15.97
2022-12-13T21:42:33.416Z,16.43
2022-12-13T21:45:21.905Z,16.83
2022-12-13T21:48:10.662Z,15.87
2022-12-13T21:50:59.157Z,15.47
2022-12-13T21:53:48.027Z,16.90
2022-12-13T21:56:54.143Z,16.00
2022-12-13T21:59:44.059Z,18.00
2022-12-13T22:02:32.634Z,18.67
2022-12-13T22:05:21.983Z,16.53
2022-12-13T22:08:10.458Z,17.33
2022-12-13T22:11:20.918Z,16.47
2022-12-13T22:14:09.985Z,16.03
2022-12-13T22:16:59.783Z,16.03
2022-12-13T22:19:49.070Z,15.50
2022-12-13T22:22:39.622Z,15.90
2022-12-13T22:25:28.125Z,15.07
2022-12-13T22:28:17.075Z,15.30
2022-12-13T22:31:05.825Z,15.60
2022-12-13T22:33:56.925Z,16.43
2022-12-13T22:36:45.547Z,15.27
2022-12-13T22:39:34.146Z,16.43
2022-12-13T22:42:22.838Z,16.83
2022-12-13T22:45:12.010Z,15.87
2022-12-13T22:48:00.460Z,16.40
2022-12-13T22:50:50.302Z,16.70
2022-12-13T22:53:38.997Z,14.77
2022-12-13T22:56:28.415Z,18.73
2022-12-13T22:59:17.538Z,17.03
2022-12-13T23:02:06.151Z,16.10
2022-12-13T23:04:54.752Z,16.10
2022-12-13T23:07:44.535Z,16.40
2022-12-13T23:10:54.917Z,15.70
2022-12-13T23:13:43.461Z,16.40
2022-12-13T23:16:37.685Z,15.37
2022-12-13T23:19:51.577Z,16.37
2022-12-13T23:22:35.849Z,17.00
2022-12-13T23:25:25.749Z,16.27
2022-12-13T23:28:14.398Z,16.17
2022-12-13T23:31:02.999Z,17.53
2022-12-13T23:33:51.520Z,18.07
2022-12-13T23:36:40.017Z,16.60
2022-12-13T23:39:28.638Z,15.87
2022-12-13T23:42:18.712Z,15.67
2022-12-13T23:45:08.431Z,16.03
2022-12-13T23:47:56.990Z,15.80
2022-12-13T23:50:45.654Z,17.67
2022-12-13T23:53:35.610Z,16.83
2022-12-13T23:56:24.692Z,18.60
2022-12-13T23:59:14.781Z,16.33
